sensor_id;sensor_type;location;lat;lon;timestamp;temperature;humidity
18365;DHT22;9309;52.126;11.616;2023-12-22T00:01:20;4.40;83.40
18365;DHT22;9309;52.126;11.616;2023-12-22T00:03:47;4.40;83.50
18365;DHT22;9309;52.126;11.616;2023-12-22T00:06:15;4.30;84.40
18365;DHT22;9309;52.126;11.616;2023-12-22T00:08:41;4.20;84.70
18365;DHT22;9309;52.126;11.616;2023-12-22T00:11:09;4.20;84.20
18365;DHT22;9309;52.126;11.616;2023-12-22T00:13:36;4.20;83.80
18365;DHT22;9309;52.126;11.616;2023-12-22T00:16:03;4.20;83.40
18365;DHT22;9309;52.126;11.616;2023-12-22T00:18:30;4.20;84.10
18365;DHT22;9309;52.126;11.616;2023-12-22T00:20:57;4.10;85.00
18365;DHT22;9309;52.126;11.616;2023-12-22T00:23:23;4.10;85.80
18365;DHT22;9309;52.126;11.616;2023-12-22T00:25:50;4.00;85.80
18365;DHT22;9309;52.126;11.616;2023-12-22T00:28:18;3.90;86.20
18365;DHT22;9309;52.126;11.616;2023-12-22T00:30:44;3.80;86.50
18365;DHT22;9309;52.126;11.616;2023-12-22T00:33:11;3.70;86.80
18365;DHT22;9309;52.126;11.616;2023-12-22T00:35:37;3.60;87.10
18365;DHT22;9309;52.126;11.616;2023-12-22T00:38:04;3.60;87.30
18365;DHT22;9309;52.126;11.616;2023-12-22T00:40:30;3.50;87.50
18365;DHT22;9309;52.126;11.616;2023-12-22T00:42:57;3.50;87.90
18365;DHT22;9309;52.126;11.616;2023-12-22T00:45:25;3.50;87.40
18365;DHT22;9309;52.126;11.616;2023-12-22T00:47:51;3.50;86.90
18365;DHT22;9309;52.126;11.616;2023-12-22T00:50:18;3.60;86.60
18365;DHT22;9309;52.126;11.616;2023-12-22T00:52:44;3.60;86.40
18365;DHT22;9309;52.126;11.616;2023-12-22T00:55:11;3.60;86.00
18365;DHT22;9309;52.126;11.616;2023-12-22T00:57:38;3.70;85.70
18365;DHT22;9309;52.126;11.616;2023-12-22T01:00:05;3.60;85.60
18365;DHT22;9309;52.126;11.616;2023-12-22T01:02:35;3.70;85.40
18365;DHT22;9309;52.126;11.616;2023-12-22T01:05:02;3.70;85.20
18365;DHT22;9309;52.126;11.616;2023-12-22T01:07:32;3.80;84.90
18365;DHT22;9309;52.126;11.616;2023-12-22T01:09:58;3.80;84.80
18365;DHT22;9309;52.126;11.616;2023-12-22T01:12:26;3.90;84.20
18365;DHT22;9309;52.126;11.616;2023-12-22T01:14:53;3.90;83.90
18365;DHT22;9309;52.126;11.616;2023-12-22T01:17:19;4.00;83.40
18365;DHT22;9309;52.126;11.616;2023-12-22T01:19:47;4.10;82.90
18365;DHT22;9309;52.126;11.616;2023-12-22T01:22:14;4.10;82.80
18365;DHT22;9309;52.126;11.616;2023-12-22T01:24:40;4.10;83.50
18365;DHT22;9309;52.126;11.616;2023-12-22T01:27:08;4.10;83.80
18365;DHT22;9309;52.126;11.616;2023-12-22T01:29:35;4.10;83.60
18365;DHT22;9309;52.126;11.616;2023-12-22T01:32:02;4.10;83.80
18365;DHT22;9309;52.126;11.616;2023-12-22T01:34:29;4.10;85.00
18365;DHT22;9309;52.126;11.616;2023-12-22T01:36:57;3.90;86.60
18365;DHT22;9309;52.126;11.616;2023-12-22T01:39:23;4.00;85.60
18365;DHT22;9309;52.126;11.616;2023-12-22T01:41:50;3.90;85.50
18365;DHT22;9309;52.126;11.616;2023-12-22T01:44:16;4.00;85.20
18365;DHT22;9309;52.126;11.616;2023-12-22T01:46:43;4.00;85.10
18365;DHT22;9309;52.126;11.616;2023-12-22T01:49:10;4.00;84.60
18365;DHT22;9309;52.126;11.616;2023-12-22T01:51:37;3.90;85.70
18365;DHT22;9309;52.126;11.616;2023-12-22T01:54:06;3.70;87.10
18365;DHT22;9309;52.126;11.616;2023-12-22T01:56:33;3.30;89.30
18365;DHT22;9309;52.126;11.616;2023-12-22T01:59:00;3.20;90.70
18365;DHT22;9309;52.126;11.616;2023-12-22T02:01:27;3.10;91.90
18365;DHT22;9309;52.126;11.616;2023-12-22T02:03:54;3.00;92.90
18365;DHT22;9309;52.126;11.616;2023-12-22T02:06:21;3.00;94.30
18365;DHT22;9309;52.126;11.616;2023-12-22T02:08:47;3.00;94.70
18365;DHT22;9309;52.126;11.616;2023-12-22T02:11:16;2.90;94.20
18365;DHT22;9309;52.126;11.616;2023-12-22T02:13:42;2.80;95.20
18365;DHT22;9309;52.126;11.616;2023-12-22T02:16:11;2.70;95.80
18365;DHT22;9309;52.126;11.616;2023-12-22T02:18:42;2.60;95.80
18365;DHT22;9309;52.126;11.616;2023-12-22T02:21:09;2.70;96.50
18365;DHT22;9309;52.126;11.616;2023-12-22T02:23:37;2.70;96.20
18365;DHT22;9309;52.126;11.616;2023-12-22T02:26:06;2.70;96.10
18365;DHT22;9309;52.126;11.616;2023-12-22T02:28:33;2.70;96.60
18365;DHT22;9309;52.126;11.616;2023-12-22T02:31:02;2.80;96.20
18365;DHT22;9309;52.126;11.616;2023-12-22T02:33:30;2.80;96.20
18365;DHT22;9309;52.126;11.616;2023-12-22T02:35:58;2.80;96.10
18365;DHT22;9309;52.126;11.616;2023-12-22T02:38:25;2.80;96.10
18365;DHT22;9309;52.126;11.616;2023-12-22T02:40:54;2.90;95.70
18365;DHT22;9309;52.126;11.616;2023-12-22T02:43:21;3.00;94.60
18365;DHT22;9309;52.126;11.616;2023-12-22T02:45:49;3.20;94.10
18365;DHT22;9309;52.126;11.616;2023-12-22T02:48:16;3.30;92.30
18365;DHT22;9309;52.126;11.616;2023-12-22T02:50:42;3.30;91.40
18365;DHT22;9309;52.126;11.616;2023-12-22T02:53:09;3.40;89.70
18365;DHT22;9309;52.126;11.616;2023-12-22T02:55:36;3.50;89.00
18365;DHT22;9309;52.126;11.616;2023-12-22T02:58:04;3.50;89.00
18365;DHT22;9309;52.126;11.616;2023-12-22T03:00:30;3.50;89.20
18365;DHT22;9309;52.126;11.616;2023-12-22T03:02:57;3.50;87.60
18365;DHT22;9309;52.126;11.616;2023-12-22T03:05:23;3.60;86.50
18365;DHT22;9309;52.126;11.616;2023-12-22T03:07:50;3.70;85.70
18365;DHT22;9309;52.126;11.616;2023-12-22T03:10:16;3.70;86.10
18365;DHT22;9309;52.126;11.616;2023-12-22T03:12:43;3.80;86.30
18365;DHT22;9309;52.126;11.616;2023-12-22T03:15:11;3.70;87.90
18365;DHT22;9309;52.126;11.616;2023-12-22T03:17:37;3.60;89.20
18365;DHT22;9309;52.126;11.616;2023-12-22T03:20:04;3.50;89.80
18365;DHT22;9309;52.126;11.616;2023-12-22T03:22:31;3.40;91.00
18365;DHT22;9309;52.126;11.616;2023-12-22T03:24:57;3.50;90.70
18365;DHT22;9309;52.126;11.616;2023-12-22T03:27:24;3.40;90.50
18365;DHT22;9309;52.126;11.616;2023-12-22T03:29:50;3.60;89.60
18365;DHT22;9309;52.126;11.616;2023-12-22T03:32:18;3.60;89.50
18365;DHT22;9309;52.126;11.616;2023-12-22T03:34:45;3.70;87.30
18365;DHT22;9309;52.126;11.616;2023-12-22T03:37:11;3.80;87.40
18365;DHT22;9309;52.126;11.616;2023-12-22T03:39:38;3.80;85.70
18365;DHT22;9309;52.126;11.616;2023-12-22T03:42:04;3.90;85.40
18365;DHT22;9309;52.126;11.616;2023-12-22T03:44:31;3.90;84.60
18365;DHT22;9309;52.126;11.616;2023-12-22T03:46:58;3.90;84.30
18365;DHT22;9309;52.126;11.616;2023-12-22T03:49:25;4.00;84.00
18365;DHT22;9309;52.126;11.616;2023-12-22T03:51:52;4.00;84.50
18365;DHT22;9309;52.126;11.616;2023-12-22T03:54:19;4.00;85.10
18365;DHT22;9309;52.126;11.616;2023-12-22T03:56:45;4.00;85.00
18365;DHT22;9309;52.126;11.616;2023-12-22T03:59:12;4.00;85.00
18365;DHT22;9309;52.126;11.616;2023-12-22T04:01:39;4.00;84.20
18365;DHT22;9309;52.126;11.616;2023-12-22T04:04:05;4.00;84.20
18365;DHT22;9309;52.126;11.616;2023-12-22T04:06:37;4.00;84.50
18365;DHT22;9309;52.126;11.616;2023-12-22T04:09:04;4.00;84.50
18365;DHT22;9309;52.126;11.616;2023-12-22T04:11:30;4.00;84.20
18365;DHT22;9309;52.126;11.616;2023-12-22T04:13:57;4.00;83.70
18365;DHT22;9309;52.126;11.616;2023-12-22T04:16:24;4.00;82.20
18365;DHT22;9309;52.126;11.616;2023-12-22T04:18:50;4.00;82.00
18365;DHT22;9309;52.126;11.616;2023-12-22T04:21:17;4.10;79.90
18365;DHT22;9309;52.126;11.616;2023-12-22T04:23:45;4.10;80.10
18365;DHT22;9309;52.126;11.616;2023-12-22T04:26:11;4.10;79.00
18365;DHT22;9309;52.126;11.616;2023-12-22T04:28:38;4.10;79.10
18365;DHT22;9309;52.126;11.616;2023-12-22T04:31:04;4.10;79.40
18365;DHT22;9309;52.126;11.616;2023-12-22T04:33:32;4.00;79.50
18365;DHT22;9309;52.126;11.616;2023-12-22T04:35:58;4.10;79.90
18365;DHT22;9309;52.126;11.616;2023-12-22T04:38:25;4.00;80.40
18365;DHT22;9309;52.126;11.616;2023-12-22T04:40:53;4.00;80.20
18365;DHT22;9309;52.126;11.616;2023-12-22T04:43:19;3.90;79.90
18365;DHT22;9309;52.126;11.616;2023-12-22T04:45:46;3.90;79.10
18365;DHT22;9309;52.126;11.616;2023-12-22T04:48:12;3.90;79.00
18365;DHT22;9309;52.126;11.616;2023-12-22T04:50:39;3.90;79.00
18365;DHT22;9309;52.126;11.616;2023-12-22T04:53:06;3.90;79.40
18365;DHT22;9309;52.126;11.616;2023-12-22T04:55:32;3.90;79.10
18365;DHT22;9309;52.126;11.616;2023-12-22T04:58:00;3.90;78.30
18365;DHT22;9309;52.126;11.616;2023-12-22T05:00:27;3.90;78.70
18365;DHT22;9309;52.126;11.616;2023-12-22T05:02:53;4.00;78.10
18365;DHT22;9309;52.126;11.616;2023-12-22T05:05:20;4.00;78.00
18365;DHT22;9309;52.126;11.616;2023-12-22T05:07:47;4.00;77.90
18365;DHT22;9309;52.126;11.616;2023-12-22T05:10:14;4.10;76.70
18365;DHT22;9309;52.126;11.616;2023-12-22T05:12:41;4.10;76.80
18365;DHT22;9309;52.126;11.616;2023-12-22T05:15:09;4.10;77.00
18365;DHT22;9309;52.126;11.616;2023-12-22T05:17:36;4.20;76.00
18365;DHT22;9309;52.126;11.616;2023-12-22T05:20:02;4.20;75.90
18365;DHT22;9309;52.126;11.616;2023-12-22T05:22:29;4.30;75.20
18365;DHT22;9309;52.126;11.616;2023-12-22T05:24:57;4.30;75.40
18365;DHT22;9309;52.126;11.616;2023-12-22T05:27:25;4.30;76.40
18365;DHT22;9309;52.126;11.616;2023-12-22T05:29:51;4.30;75.10
18365;DHT22;9309;52.126;11.616;2023-12-22T05:32:19;4.30;75.10
18365;DHT22;9309;52.126;11.616;2023-12-22T05:34:46;4.40;73.60
18365;DHT22;9309;52.126;11.616;2023-12-22T05:37:12;4.50;73.60
18365;DHT22;9309;52.126;11.616;2023-12-22T05:39:39;4.50;74.50
18365;DHT22;9309;52.126;11.616;2023-12-22T05:42:06;4.50;75.60
18365;DHT22;9309;52.126;11.616;2023-12-22T05:44:32;4.40;76.70
18365;DHT22;9309;52.126;11.616;2023-12-22T05:46:59;4.40;76.70
18365;DHT22;9309;52.126;11.616;2023-12-22T05:49:27;4.40;76.00
18365;DHT22;9309;52.126;11.616;2023-12-22T05:51:53;4.30;77.00
18365;DHT22;9309;52.126;11.616;2023-12-22T05:54:20;4.30;76.30
18365;DHT22;9309;52.126;11.616;2023-12-22T05:56:48;4.30;76.00
18365;DHT22;9309;52.126;11.616;2023-12-22T05:59:16;4.20;76.50
18365;DHT22;9309;52.126;11.616;2023-12-22T06:01:43;4.20;77.20
18365;DHT22;9309;52.126;11.616;2023-12-22T06:04:10;4.20;77.20
18365;DHT22;9309;52.126;11.616;2023-12-22T06:06:38;4.10;78.70
18365;DHT22;9309;52.126;11.616;2023-12-22T06:09:04;4.00;79.90
18365;DHT22;9309;52.126;11.616;2023-12-22T06:11:31;3.80;79.90
18365;DHT22;9309;52.126;11.616;2023-12-22T06:13:58;3.70;80.10
18365;DHT22;9309;52.126;11.616;2023-12-22T06:16:24;3.70;80.90
18365;DHT22;9309;52.126;11.616;2023-12-22T06:18:51;3.70;80.40
18365;DHT22;9309;52.126;11.616;2023-12-22T06:21:17;3.60;81.10
18365;DHT22;9309;52.126;11.616;2023-12-22T06:23:45;3.60;81.40
18365;DHT22;9309;52.126;11.616;2023-12-22T06:26:12;3.50;82.10
18365;DHT22;9309;52.126;11.616;2023-12-22T06:28:38;3.40;82.30
18365;DHT22;9309;52.126;11.616;2023-12-22T06:31:05;3.40;81.60
18365;DHT22;9309;52.126;11.616;2023-12-22T06:33:32;3.40;81.50
18365;DHT22;9309;52.126;11.616;2023-12-22T06:35:59;3.40;82.10
18365;DHT22;9309;52.126;11.616;2023-12-22T06:38:25;3.30;82.60
18365;DHT22;9309;52.126;11.616;2023-12-22T06:40:54;3.30;83.20
18365;DHT22;9309;52.126;11.616;2023-12-22T06:43:20;3.20;83.60
18365;DHT22;9309;52.126;11.616;2023-12-22T06:45:47;3.10;84.10
18365;DHT22;9309;52.126;11.616;2023-12-22T06:48:13;3.10;84.50
18365;DHT22;9309;52.126;11.616;2023-12-22T06:50:40;2.90;85.20
18365;DHT22;9309;52.126;11.616;2023-12-22T06:53:10;2.80;85.90
18365;DHT22;9309;52.126;11.616;2023-12-22T06:55:36;2.80;86.00
18365;DHT22;9309;52.126;11.616;2023-12-22T06:58:04;2.80;87.70
18365;DHT22;9309;52.126;11.616;2023-12-22T07:00:30;2.70;87.40
18365;DHT22;9309;52.126;11.616;2023-12-22T07:02:57;2.60;89.80
18365;DHT22;9309;52.126;11.616;2023-12-22T07:05:31;2.40;91.40
18365;DHT22;9309;52.126;11.616;2023-12-22T07:07:57;2.30;92.20
18365;DHT22;9309;52.126;11.616;2023-12-22T07:10:24;2.30;92.90
18365;DHT22;9309;52.126;11.616;2023-12-22T07:12:50;2.10;94.00
18365;DHT22;9309;52.126;11.616;2023-12-22T07:15:18;1.90;94.60
18365;DHT22;9309;52.126;11.616;2023-12-22T07:17:45;1.80;95.40
18365;DHT22;9309;52.126;11.616;2023-12-22T07:20:11;1.70;96.00
18365;DHT22;9309;52.126;11.616;2023-12-22T07:22:38;1.60;96.50
18365;DHT22;9309;52.126;11.616;2023-12-22T07:25:05;1.60;96.90
18365;DHT22;9309;52.126;11.616;2023-12-22T07:27:33;1.60;97.50
18365;DHT22;9309;52.126;11.616;2023-12-22T07:30:00;1.70;97.80
18365;DHT22;9309;52.126;11.616;2023-12-22T07:32:28;1.80;97.80
18365;DHT22;9309;52.126;11.616;2023-12-22T07:34:55;1.90;97.20
18365;DHT22;9309;52.126;11.616;2023-12-22T07:37:21;2.10;95.90
18365;DHT22;9309;52.126;11.616;2023-12-22T07:39:48;2.30;94.70
18365;DHT22;9309;52.126;11.616;2023-12-22T07:42:15;2.40;94.00
18365;DHT22;9309;52.126;11.616;2023-12-22T07:44:41;2.40;92.90
18365;DHT22;9309;52.126;11.616;2023-12-22T07:47:08;2.40;92.30
18365;DHT22;9309;52.126;11.616;2023-12-22T07:49:37;2.30;91.00
18365;DHT22;9309;52.126;11.616;2023-12-22T07:52:04;2.40;89.10
18365;DHT22;9309;52.126;11.616;2023-12-22T07:54:30;2.40;89.50
18365;DHT22;9309;52.126;11.616;2023-12-22T07:56:57;2.40;88.90
18365;DHT22;9309;52.126;11.616;2023-12-22T07:59:23;2.50;87.80
18365;DHT22;9309;52.126;11.616;2023-12-22T08:01:50;2.60;85.80
18365;DHT22;9309;52.126;11.616;2023-12-22T08:04:17;2.60;85.60
18365;DHT22;9309;52.126;11.616;2023-12-22T08:06:45;2.70;85.40
18365;DHT22;9309;52.126;11.616;2023-12-22T08:09:12;2.70;85.60
18365;DHT22;9309;52.126;11.616;2023-12-22T08:11:38;2.70;86.40
18365;DHT22;9309;52.126;11.616;2023-12-22T08:14:05;2.70;87.50
18365;DHT22;9309;52.126;11.616;2023-12-22T08:16:32;2.80;88.00
18365;DHT22;9309;52.126;11.616;2023-12-22T08:18:58;2.90;87.70
18365;DHT22;9309;52.126;11.616;2023-12-22T08:21:26;3.10;85.50
18365;DHT22;9309;52.126;11.616;2023-12-22T08:23:53;3.20;84.10
18365;DHT22;9309;52.126;11.616;2023-12-22T08:26:20;3.30;84.10
18365;DHT22;9309;52.126;11.616;2023-12-22T08:28:47;3.40;84.10
18365;DHT22;9309;52.126;11.616;2023-12-22T08:31:13;3.30;84.00
18365;DHT22;9309;52.126;11.616;2023-12-22T08:33:40;3.40;81.30
18365;DHT22;9309;52.126;11.616;2023-12-22T08:36:08;3.50;80.60
18365;DHT22;9309;52.126;11.616;2023-12-22T08:38:35;3.60;79.80
18365;DHT22;9309;52.126;11.616;2023-12-22T08:41:06;3.70;78.10
18365;DHT22;9309;52.126;11.616;2023-12-22T08:43:32;3.70;78.30
18365;DHT22;9309;52.126;11.616;2023-12-22T08:45:59;3.60;78.60
18365;DHT22;9309;52.126;11.616;2023-12-22T08:48:26;3.70;78.90
18365;DHT22;9309;52.126;11.616;2023-12-22T08:50:53;3.80;79.40
18365;DHT22;9309;52.126;11.616;2023-12-22T08:53:18;3.80;79.20
18365;DHT22;9309;52.126;11.616;2023-12-22T08:55:45;4.00;78.10
18365;DHT22;9309;52.126;11.616;2023-12-22T08:58:13;4.20;77.70
18365;DHT22;9309;52.126;11.616;2023-12-22T09:00:40;4.00;78.10
18365;DHT22;9309;52.126;11.616;2023-12-22T09:03:06;3.80;77.90
18365;DHT22;9309;52.126;11.616;2023-12-22T09:05:33;3.80;79.00
18365;DHT22;9309;52.126;11.616;2023-12-22T09:08:00;3.80;78.50
18365;DHT22;9309;52.126;11.616;2023-12-22T09:10:26;3.90;78.30
18365;DHT22;9309;52.126;11.616;2023-12-22T09:12:53;4.00;78.00
18365;DHT22;9309;52.126;11.616;2023-12-22T09:15:21;4.10;78.20
18365;DHT22;9309;52.126;11.616;2023-12-22T09:17:47;4.50;76.10
18365;DHT22;9309;52.126;11.616;2023-12-22T09:20:14;5.00;74.50
18365;DHT22;9309;52.126;11.616;2023-12-22T09:22:41;5.20;73.00
18365;DHT22;9309;52.126;11.616;2023-12-22T09:25:08;5.20;72.30
18365;DHT22;9309;52.126;11.616;2023-12-22T09:27:35;5.20;71.60
18365;DHT22;9309;52.126;11.616;2023-12-22T09:30:01;5.20;72.60
18365;DHT22;9309;52.126;11.616;2023-12-22T09:32:31;5.00;73.40
18365;DHT22;9309;52.126;11.616;2023-12-22T09:34:57;4.80;74.80
18365;DHT22;9309;52.126;11.616;2023-12-22T09:37:24;4.40;77.70
18365;DHT22;9309;52.126;11.616;2023-12-22T09:39:51;4.20;79.60
18365;DHT22;9309;52.126;11.616;2023-12-22T09:42:17;4.30;80.50
18365;DHT22;9309;52.126;11.616;2023-12-22T09:44:44;4.60;79.40
18365;DHT22;9309;52.126;11.616;2023-12-22T09:47:11;4.90;79.40
18365;DHT22;9309;52.126;11.616;2023-12-22T09:49:39;5.30;77.90
18365;DHT22;9309;52.126;11.616;2023-12-22T09:52:07;5.50;76.80
18365;DHT22;9309;52.126;11.616;2023-12-22T09:54:34;5.20;76.80
18365;DHT22;9309;52.126;11.616;2023-12-22T09:57:00;4.80;77.20
18365;DHT22;9309;52.126;11.616;2023-12-22T09:59:28;4.30;80.60
18365;DHT22;9309;52.126;11.616;2023-12-22T10:01:57;3.60;85.40
18365;DHT22;9309;52.126;11.616;2023-12-22T10:04:25;3.30;88.40
18365;DHT22;9309;52.126;11.616;2023-12-22T10:06:53;3.30;89.30
18365;DHT22;9309;52.126;11.616;2023-12-22T10:09:26;3.30;90.20
18365;DHT22;9309;52.126;11.616;2023-12-22T10:11:53;3.40;89.60
18365;DHT22;9309;52.126;11.616;2023-12-22T10:14:21;3.50;89.50
18365;DHT22;9309;52.126;11.616;2023-12-22T10:16:48;3.60;90.10
18365;DHT22;9309;52.126;11.616;2023-12-22T10:19:15;3.80;89.30
18365;DHT22;9309;52.126;11.616;2023-12-22T10:21:41;3.70;89.40
18365;DHT22;9309;52.126;11.616;2023-12-22T10:24:10;3.70;89.40
18365;DHT22;9309;52.126;11.616;2023-12-22T10:26:58;3.90;88.80
18365;DHT22;9309;52.126;11.616;2023-12-22T10:29:24;4.30;85.80
18365;DHT22;9309;52.126;11.616;2023-12-22T10:31:51;4.70;82.40
18365;DHT22;9309;52.126;11.616;2023-12-22T10:34:18;5.20;79.50
18365;DHT22;9309;52.126;11.616;2023-12-22T10:36:44;5.50;77.50
18365;DHT22;9309;52.126;11.616;2023-12-22T10:39:11;5.60;77.30
18365;DHT22;9309;52.126;11.616;2023-12-22T10:41:38;5.70;76.30
18365;DHT22;9309;52.126;11.616;2023-12-22T10:44:05;5.80;75.70
18365;DHT22;9309;52.126;11.616;2023-12-22T10:46:33;5.70;75.30
18365;DHT22;9309;52.126;11.616;2023-12-22T10:49:01;5.70;74.80
18365;DHT22;9309;52.126;11.616;2023-12-22T10:51:29;5.60;75.90
18365;DHT22;9309;52.126;11.616;2023-12-22T10:53:58;5.60;75.80
18365;DHT22;9309;52.126;11.616;2023-12-22T10:56:24;5.70;74.10
18365;DHT22;9309;52.126;11.616;2023-12-22T10:58:51;5.60;72.80
18365;DHT22;9309;52.126;11.616;2023-12-22T11:01:20;5.50;70.20
18365;DHT22;9309;52.126;11.616;2023-12-22T11:03:48;5.30;68.40
18365;DHT22;9309;52.126;11.616;2023-12-22T11:06:16;5.30;67.30
18365;DHT22;9309;52.126;11.616;2023-12-22T11:08:44;5.10;68.20
18365;DHT22;9309;52.126;11.616;2023-12-22T11:11:16;4.90;70.30
18365;DHT22;9309;52.126;11.616;2023-12-22T11:13:47;4.60;72.00
18365;DHT22;9309;52.126;11.616;2023-12-22T11:16:14;4.20;76.00
18365;DHT22;9309;52.126;11.616;2023-12-22T11:18:43;3.70;79.20
18365;DHT22;9309;52.126;11.616;2023-12-22T11:21:12;3.30;83.60
18365;DHT22;9309;52.126;11.616;2023-12-22T11:23:40;3.00;86.60
18365;DHT22;9309;52.126;11.616;2023-12-22T11:26:09;2.80;88.30
18365;DHT22;9309;52.126;11.616;2023-12-22T11:28:39;2.70;90.70
18365;DHT22;9309;52.126;11.616;2023-12-22T11:31:07;2.70;91.90
18365;DHT22;9309;52.126;11.616;2023-12-22T11:33:33;2.50;91.50
18365;DHT22;9309;52.126;11.616;2023-12-22T11:36:02;2.50;92.80
18365;DHT22;9309;52.126;11.616;2023-12-22T11:38:29;2.60;92.80
18365;DHT22;9309;52.126;11.616;2023-12-22T11:40:57;2.70;92.10
18365;DHT22;9309;52.126;11.616;2023-12-22T11:43:25;2.70;91.90
18365;DHT22;9309;52.126;11.616;2023-12-22T11:45:52;2.70;92.20
18365;DHT22;9309;52.126;11.616;2023-12-22T11:48:19;2.80;92.00
18365;DHT22;9309;52.126;11.616;2023-12-22T11:50:46;2.90;91.50
18365;DHT22;9309;52.126;11.616;2023-12-22T11:53:21;3.00;91.30
18365;DHT22;9309;52.126;11.616;2023-12-22T11:55:58;2.90;91.10
18365;DHT22;9309;52.126;11.616;2023-12-22T11:58:34;2.80;91.90
18365;DHT22;9309;52.126;11.616;2023-12-22T12:01:01;2.90;92.00
18365;DHT22;9309;52.126;11.616;2023-12-22T12:03:29;2.90;92.20
18365;DHT22;9309;52.126;11.616;2023-12-22T12:06:09;2.90;92.30
18365;DHT22;9309;52.126;11.616;2023-12-22T12:08:37;2.90;92.10
18365;DHT22;9309;52.126;11.616;2023-12-22T12:11:04;2.80;92.30
18365;DHT22;9309;52.126;11.616;2023-12-22T12:13:32;2.90;91.90
18365;DHT22;9309;52.126;11.616;2023-12-22T12:16:00;3.00;91.90
18365;DHT22;9309;52.126;11.616;2023-12-22T12:18:27;2.90;92.50
18365;DHT22;9309;52.126;11.616;2023-12-22T12:20:54;2.90;93.70
18365;DHT22;9309;52.126;11.616;2023-12-22T12:23:23;2.90;93.80
18365;DHT22;9309;52.126;11.616;2023-12-22T12:25:51;3.00;93.40
18365;DHT22;9309;52.126;11.616;2023-12-22T12:28:17;3.00;93.20
18365;DHT22;9309;52.126;11.616;2023-12-22T12:30:52;3.00;93.20
18365;DHT22;9309;52.126;11.616;2023-12-22T12:33:23;3.10;93.50
18365;DHT22;9309;52.126;11.616;2023-12-22T12:35:51;3.30;92.30
18365;DHT22;9309;52.126;11.616;2023-12-22T12:38:18;3.40;92.60
18365;DHT22;9309;52.126;11.616;2023-12-22T12:40:47;3.50;92.80
18365;DHT22;9309;52.126;11.616;2023-12-22T12:43:17;3.40;92.40
18365;DHT22;9309;52.126;11.616;2023-12-22T12:45:44;3.40;93.00
18365;DHT22;9309;52.126;11.616;2023-12-22T12:48:11;3.30;92.50
18365;DHT22;9309;52.126;11.616;2023-12-22T12:50:42;3.30;92.60
18365;DHT22;9309;52.126;11.616;2023-12-22T12:53:08;3.20;93.60
18365;DHT22;9309;52.126;11.616;2023-12-22T12:55:35;3.30;93.20
18365;DHT22;9309;52.126;11.616;2023-12-22T12:58:02;3.30;92.60
18365;DHT22;9309;52.126;11.616;2023-12-22T13:00:31;3.40;92.80
18365;DHT22;9309;52.126;11.616;2023-12-22T13:02:59;3.50;92.20
18365;DHT22;9309;52.126;11.616;2023-12-22T13:05:28;3.60;91.50
18365;DHT22;9309;52.126;11.616;2023-12-22T13:08:05;3.70;90.50
18365;DHT22;9309;52.126;11.616;2023-12-22T13:10:32;3.90;90.50
18365;DHT22;9309;52.126;11.616;2023-12-22T13:12:59;4.00;89.00
18365;DHT22;9309;52.126;11.616;2023-12-22T13:15:26;4.00;88.80
18365;DHT22;9309;52.126;11.616;2023-12-22T13:17:54;4.00;88.00
18365;DHT22;9309;52.126;11.616;2023-12-22T13:20:20;4.00;88.40
18365;DHT22;9309;52.126;11.616;2023-12-22T13:22:47;4.00;88.00
18365;DHT22;9309;52.126;11.616;2023-12-22T13:25:14;4.00;88.20
18365;DHT22;9309;52.126;11.616;2023-12-22T13:27:44;3.90;88.10
18365;DHT22;9309;52.126;11.616;2023-12-22T13:30:11;4.00;87.60
18365;DHT22;9309;52.126;11.616;2023-12-22T13:32:38;4.00;88.10
18365;DHT22;9309;52.126;11.616;2023-12-22T13:35:07;4.00;88.10
18365;DHT22;9309;52.126;11.616;2023-12-22T13:37:34;4.00;87.80
18365;DHT22;9309;52.126;11.616;2023-12-22T13:40:07;4.00;87.60
18365;DHT22;9309;52.126;11.616;2023-12-22T13:42:34;4.00;87.90
18365;DHT22;9309;52.126;11.616;2023-12-22T13:45:02;4.10;87.90
18365;DHT22;9309;52.126;11.616;2023-12-22T13:47:30;4.10;87.70
18365;DHT22;9309;52.126;11.616;2023-12-22T13:49:57;4.10;87.50
18365;DHT22;9309;52.126;11.616;2023-12-22T13:52:25;4.10;87.50
18365;DHT22;9309;52.126;11.616;2023-12-22T13:54:52;4.10;87.20
18365;DHT22;9309;52.126;11.616;2023-12-22T13:57:21;4.10;87.30
18365;DHT22;9309;52.126;11.616;2023-12-22T13:59:48;4.10;86.80
18365;DHT22;9309;52.126;11.616;2023-12-22T14:02:15;4.10;86.90
18365;DHT22;9309;52.126;11.616;2023-12-22T14:04:41;4.10;87.20
18365;DHT22;9309;52.126;11.616;2023-12-22T14:07:08;4.20;86.70
18365;DHT22;9309;52.126;11.616;2023-12-22T14:09:36;4.20;86.70
18365;DHT22;9309;52.126;11.616;2023-12-22T14:12:04;4.20;86.90
18365;DHT22;9309;52.126;11.616;2023-12-22T14:14:30;4.10;87.90
18365;DHT22;9309;52.126;11.616;2023-12-22T14:16:57;4.10;88.20
18365;DHT22;9309;52.126;11.616;2023-12-22T14:19:24;4.10;88.50
18365;DHT22;9309;52.126;11.616;2023-12-22T14:21:50;4.10;88.20
18365;DHT22;9309;52.126;11.616;2023-12-22T14:24:17;4.10;88.20
18365;DHT22;9309;52.126;11.616;2023-12-22T14:26:54;4.20;88.00
18365;DHT22;9309;52.126;11.616;2023-12-22T14:29:21;4.30;88.00
18365;DHT22;9309;52.126;11.616;2023-12-22T14:31:48;4.30;87.90
18365;DHT22;9309;52.126;11.616;2023-12-22T14:34:15;4.30;88.60
18365;DHT22;9309;52.126;11.616;2023-12-22T14:36:42;4.20;90.30
18365;DHT22;9309;52.126;11.616;2023-12-22T14:39:08;4.10;91.50
18365;DHT22;9309;52.126;11.616;2023-12-22T14:41:38;4.00;92.40
18365;DHT22;9309;52.126;11.616;2023-12-22T14:44:06;4.00;92.80
18365;DHT22;9309;52.126;11.616;2023-12-22T14:46:32;3.90;92.20
18365;DHT22;9309;52.126;11.616;2023-12-22T14:48:59;4.00;91.30
18365;DHT22;9309;52.126;11.616;2023-12-22T14:51:25;3.80;92.10
18365;DHT22;9309;52.126;11.616;2023-12-22T14:53:53;3.70;92.60
18365;DHT22;9309;52.126;11.616;2023-12-22T14:56:20;3.70;93.80
18365;DHT22;9309;52.126;11.616;2023-12-22T14:58:46;3.70;94.20
18365;DHT22;9309;52.126;11.616;2023-12-22T15:01:14;3.70;92.10
18365;DHT22;9309;52.126;11.616;2023-12-22T15:03:41;3.60;90.10
18365;DHT22;9309;52.126;11.616;2023-12-22T15:06:08;3.60;87.10
18365;DHT22;9309;52.126;11.616;2023-12-22T15:08:34;3.60;87.20
18365;DHT22;9309;52.126;11.616;2023-12-22T15:11:01;3.60;87.50
18365;DHT22;9309;52.126;11.616;2023-12-22T15:13:27;3.50;89.00
18365;DHT22;9309;52.126;11.616;2023-12-22T15:15:54;3.40;91.10
18365;DHT22;9309;52.126;11.616;2023-12-22T15:18:22;3.20;92.50
18365;DHT22;9309;52.126;11.616;2023-12-22T15:20:48;3.00;93.50
18365;DHT22;9309;52.126;11.616;2023-12-22T15:23:16;2.90;94.80
18365;DHT22;9309;52.126;11.616;2023-12-22T15:25:43;2.70;94.60
18365;DHT22;9309;52.126;11.616;2023-12-22T15:28:10;2.60;94.60
18365;DHT22;9309;52.126;11.616;2023-12-22T15:30:36;2.60;94.90
18365;DHT22;9309;52.126;11.616;2023-12-22T15:33:03;2.60;94.90
18365;DHT22;9309;52.126;11.616;2023-12-22T15:35:31;2.60;95.00
18365;DHT22;9309;52.126;11.616;2023-12-22T15:37:58;2.50;95.50
18365;DHT22;9309;52.126;11.616;2023-12-22T15:40:24;2.50;95.70
18365;DHT22;9309;52.126;11.616;2023-12-22T15:42:51;2.50;96.10
18365;DHT22;9309;52.126;11.616;2023-12-22T15:45:17;2.50;95.90